sensor_id;sensor_type;location;lat;lon;timestamp;pressure;altitude;pressure_sealevel;temperature;humidity
44103;BME280;29769;42.178;24.742;2023-01-16T00:00:10;99783.38;;;5.42;100.00
44103;BME280;29769;42.178;24.742;2023-01-16T00:02:55;99786.78;;;5.30;100.00
44103;BME280;29769;42.178;24.742;2023-01-16T00:05:42;99769.19;;;5.06;100.00
44103;BME280;29769;42.178;24.742;2023-01-16T00:08:27;99773.63;;;5.15;100.00
44103;BME280;29769;42.178;24.742;2023-01-16T00:11:12;99765.69;;;5.00;100.00
44103;BME280;29769;42.178;24.742;2023-01-16T00:13:56;99768.19;;;4.86;100.00
44103;BME280;29769;42.178;24.742;2023-01-16T00:16:42;99765.50;;;4.77;100.00
44103;BME280;29769;42.178;24.742;2023-01-16T00:19:27;99758.47;;;4.70;100.00
44103;BME280;29769;42.178;24.742;2023-01-16T00:22:12;99754.84;;;4.56;100.00
44103;BME280;29769;42.178;24.742;2023-01-16T00:24:57;99765.28;;;4.54;100.00
44103;BME280;29769;42.178;24.742;2023-01-16T00:27:42;99761.59;;;4.37;100.00
44103;BME280;29769;42.178;24.742;2023-01-16T00:30:26;99763.25;;;4.29;100.00
44103;BME280;29769;42.178;24.742;2023-01-16T00:33:11;99764.00;;;4.19;100.00
44103;BME280;29769;42.178;24.742;2023-01-16T00:35:57;99768.28;;;4.12;100.00
44103;BME280;29769;42.178;24.742;2023-01-16T00:38:41;99769.88;;;4.01;100.00
44103;BME280;29769;42.178;24.742;2023-01-16T00:41:26;99772.44;;;3.98;100.00
44103;BME280;29769;42.178;24.742;2023-01-16T00:44:11;99761.13;;;3.96;100.00
44103;BME280;29769;42.178;24.742;2023-01-16T00:46:56;99759.41;;;3.95;100.00
44103;BME280;29769;42.178;24.742;2023-01-16T00:49:41;99758.38;;;3.84;100.00
44103;BME280;29769;42.178;24.742;2023-01-16T00:52:26;99755.63;;;3.73;100.00
44103;BME280;29769;42.178;24.742;2023-01-16T00:55:11;99748.66;;;3.68;100.00
44103;BME280;29769;42.178;24.742;2023-01-16T00:57:56;99755.47;;;3.58;100.00
44103;BME280;29769;42.178;24.742;2023-01-16T01:00:41;99749.34;;;3.56;100.00
44103;BME280;29769;42.178;24.742;2023-01-16T01:03:27;99743.22;;;3.51;100.00
44103;BME280;29769;42.178;24.742;2023-01-16T01:06:13;99731.81;;;3.41;100.00
44103;BME280;29769;42.178;24.742;2023-01-16T01:08:57;99737.09;;;3.47;100.00
44103;BME280;29769;42.178;24.742;2023-01-16T01:11:42;99735.44;;;3.52;100.00
44103;BME280;29769;42.178;24.742;2023-01-16T01:14:27;99749.47;;;3.65;100.00
44103;BME280;29769;42.178;24.742;2023-01-16T01:17:12;99753.81;;;3.66;100.00
44103;BME280;29769;42.178;24.742;2023-01-16T01:19:57;99745.22;;;3.72;100.00
44103;BME280;29769;42.178;24.742;2023-01-16T01:22:44;99743.59;;;3.80;100.00
44103;BME280;29769;42.178;24.742;2023-01-16T01:25:29;99737.47;;;3.78;100.00
44103;BME280;29769;42.178;24.742;2023-01-16T01:28:15;99743.56;;;3.77;100.00
44103;BME280;29769;42.178;24.742;2023-01-16T01:31:08;99722.66;;;3.71;100.00
44103;BME280;29769;42.178;24.742;2023-01-16T01:33:53;99727.88;;;3.71;100.00
44103;BME280;29769;42.178;24.742;2023-01-16T01:36:38;99726.09;;;3.68;100.00
44103;BME280;29769;42.178;24.742;2023-01-16T01:39:23;99733.81;;;3.61;100.00
44103;BME280;29769;42.178;24.742;2023-01-16T01:42:11;99712.84;;;3.48;100.00
44103;BME280;29769;42.178;24.742;2023-01-16T01:45:18;99729.44;;;3.58;100.00
44103;BME280;29769;42.178;24.742;2023-01-16T01:48:27;99732.94;;;3.60;100.00
44103;BME280;29769;42.178;24.742;2023-01-16T01:51:25;99716.25;;;3.44;100.00
44103;BME280;29769;42.178;24.742;2023-01-16T01:54:19;99715.41;;;3.47;100.00
44103;BME280;29769;42.178;24.742;2023-01-16T01:57:09;99720.53;;;3.39;100.00
44103;BME280;29769;42.178;24.742;2023-01-16T02:00:02;99723.88;;;3.31;100.00
44103;BME280;29769;42.178;24.742;2023-01-16T02:03:07;99712.78;;;3.44;100.00
44103;BME280;29769;42.178;24.742;2023-01-16T02:05:55;99719.03;;;3.58;100.00
44103;BME280;29769;42.178;24.742;2023-01-16T02:08:42;99706.09;;;3.64;100.00
44103;BME280;29769;42.178;24.742;2023-01-16T02:11:34;99718.44;;;3.82;100.00
44103;BME280;29769;42.178;24.742;2023-01-16T02:14:21;99713.41;;;3.94;100.00
44103;BME280;29769;42.178;24.742;2023-01-16T02:17:18;99707.38;;;3.98;100.00
44103;BME280;29769;42.178;24.742;2023-01-16T02:20:25;99707.56;;;4.15;100.00
44103;BME280;29769;42.178;24.742;2023-01-16T02:26:57;99704.75;;;3.95;100.00
44103;BME280;29769;42.178;24.742;2023-01-16T02:39:14;99706.78;;;3.49;100.00
44103;BME280;29769;42.178;24.742;2023-01-16T02:42:24;99710.19;;;3.45;100.00
44103;BME280;29769;42.178;24.742;2023-01-16T02:45:18;99721.41;;;3.41;100.00
44103;BME280;29769;42.178;24.742;2023-01-16T02:51:49;99712.81;;;3.47;100.00
44103;BME280;29769;42.178;24.742;2023-01-16T02:55:03;99718.91;;;3.50;100.00
44103;BME280;29769;42.178;24.742;2023-01-16T02:57:55;99716.41;;;3.56;100.00
44103;BME280;29769;42.178;24.742;2023-01-16T03:00:53;99706.03;;;3.59;100.00
44103;BME280;29769;42.178;24.742;2023-01-16T03:03:49;99708.81;;;3.72;100.00
44103;BME280;29769;42.178;24.742;2023-01-16T03:06:49;99695.09;;;3.86;100.00
44103;BME280;29769;42.178;24.742;2023-01-16T03:09:45;99679.59;;;3.94;100.00
44103;BME280;29769;42.178;24.742;2023-01-16T03:12:59;99685.94;;;4.20;100.00
44103;BME280;29769;42.178;24.742;2023-01-16T03:21:47;99671.50;;;4.56;100.00
44103;BME280;29769;42.178;24.742;2023-01-16T03:36:56;99669.09;;;4.80;100.00
44103;BME280;29769;42.178;24.742;2023-01-16T03:39:47;99666.47;;;4.78;100.00
44103;BME280;29769;42.178;24.742;2023-01-16T03:45:38;99636.97;;;4.87;100.00
44103;BME280;29769;42.178;24.742;2023-01-16T03:51:24;99654.44;;;5.00;100.00
44103;BME280;29769;42.178;24.742;2023-01-16T03:57:37;99641.47;;;5.09;100.00
44103;BME280;29769;42.178;24.742;2023-01-16T04:00:27;99628.38;;;4.97;100.00
44103;BME280;29769;42.178;24.742;2023-01-16T04:03:22;99644.94;;;5.04;100.00
44103;BME280;29769;42.178;24.742;2023-01-16T04:06:17;99643.22;;;5.09;100.00
44103;BME280;29769;42.178;24.742;2023-01-16T04:09:10;99624.91;;;4.98;100.00
44103;BME280;29769;42.178;24.742;2023-01-16T04:11:58;99639.75;;;5.11;100.00
44103;BME280;29769;42.178;24.742;2023-01-16T04:14:45;99635.44;;;5.19;100.00
44103;BME280;29769;42.178;24.742;2023-01-16T04:17:33;99578.88;;;5.03;100.00
44103;BME280;29769;42.178;24.742;2023-01-16T04:20:20;99617.25;;;5.30;100.00
44103;BME280;29769;42.178;24.742;2023-01-16T04:23:05;99613.72;;;5.23;100.00
44103;BME280;29769;42.178;24.742;2023-01-16T04:25:50;99608.50;;;5.23;100.00
44103;BME280;29769;42.178;24.742;2023-01-16T04:28:35;99608.50;;;5.23;100.00
44103;BME280;29769;42.178;24.742;2023-01-16T04:31:23;99606.81;;;5.28;100.00
44103;BME280;29769;42.178;24.742;2023-01-16T04:34:08;99600.69;;;5.23;100.00
44103;BME280;29769;42.178;24.742;2023-01-16T04:36:53;99601.56;;;5.24;100.00
44103;BME280;29769;42.178;24.742;2023-01-16T04:39:38;99610.25;;;5.24;100.00
44103;BME280;29769;42.178;24.742;2023-01-16T04:42:25;99600.69;;;5.22;100.00
44103;BME280;29769;42.178;24.742;2023-01-16T04:45:10;99598.97;;;5.31;100.00
44103;BME280;29769;42.178;24.742;2023-01-16T04:47:55;99599.00;;;5.36;100.00
44103;BME280;29769;42.178;24.742;2023-01-16T04:50:40;99604.22;;;5.36;100.00
44103;BME280;29769;42.178;24.742;2023-01-16T04:53:25;99599.03;;;5.39;100.00
44103;BME280;29769;42.178;24.742;2023-01-16T04:56:10;99601.66;;;5.44;100.00
44103;BME280;29769;42.178;24.742;2023-01-16T04:58:55;99599.03;;;5.50;100.00
44103;BME280;29769;42.178;24.742;2023-01-16T05:01:40;99598.19;;;5.51;100.00
44103;BME280;29769;42.178;24.742;2023-01-16T05:04:25;99599.94;;;5.52;100.00
44103;BME280;29769;42.178;24.742;2023-01-16T05:07:09;99602.50;;;5.46;100.00
44103;BME280;29769;42.178;24.742;2023-01-16T05:09:54;99600.84;;;5.57;100.00
44103;BME280;29769;42.178;24.742;2023-01-16T05:12:39;99593.00;;;5.57;100.00
44103;BME280;29769;42.178;24.742;2023-01-16T05:15:24;99597.38;;;5.58;100.00
44103;BME280;29769;42.178;24.742;2023-01-16T05:18:09;99603.47;;;5.63;100.00
44103;BME280;29769;42.178;24.742;2023-01-16T05:20:56;99603.41;;;5.51;100.00
44103;BME280;29769;42.178;24.742;2023-01-16T05:23:40;99604.28;;;5.59;100.00
44103;BME280;29769;42.178;24.742;2023-01-16T05:26:25;99587.75;;;5.48;100.00
44103;BME280;29769;42.178;24.742;2023-01-16T05:29:10;99587.78;;;5.55;100.00
44103;BME280;29769;42.178;24.742;2023-01-16T05:31:55;99578.19;;;5.51;100.00
44103;BME280;29769;42.178;24.742;2023-01-16T05:34:40;99559.03;;;5.46;100.00
44103;BME280;29769;42.178;24.742;2023-01-16T05:37:25;99575.59;;;5.56;100.00
44103;BME280;29769;42.178;24.742;2023-01-16T05:40:10;99564.31;;;5.57;100.00
44103;BME280;29769;42.178;24.742;2023-01-16T05:42:56;99544.25;;;5.47;100.00
44103;BME280;29769;42.178;24.742;2023-01-16T05:45:41;99570.38;;;5.56;100.00
44103;BME280;29769;42.178;24.742;2023-01-16T05:48:26;99561.66;;;5.46;100.00
44103;BME280;29769;42.178;24.742;2023-01-16T05:51:11;99563.41;;;5.44;100.00
44103;BME280;29769;42.178;24.742;2023-01-16T05:53:55;99565.97;;;5.41;100.00
44103;BME280;29769;42.178;24.742;2023-01-16T05:56:40;99569.47;;;5.40;100.00
44103;BME280;29769;42.178;24.742;2023-01-16T05:59:25;99565.09;;;5.37;100.00
44103;BME280;29769;42.178;24.742;2023-01-16T06:02:10;99565.09;;;5.36;100.00
44103;BME280;29769;42.178;24.742;2023-01-16T06:04:55;99564.25;;;5.38;100.00
44103;BME280;29769;42.178;24.742;2023-01-16T06:07:40;99561.63;;;5.34;100.00
44103;BME280;29769;42.178;24.742;2023-01-16T06:10:28;99559.00;;;5.34;100.00
44103;BME280;29769;42.178;24.742;2023-01-16T06:13:13;99555.53;;;5.30;100.00
44103;BME280;29769;42.178;24.742;2023-01-16T06:15:57;99552.88;;;5.24;100.00
44103;BME280;29769;42.178;24.742;2023-01-16T06:18:42;99557.22;;;5.27;100.00
44103;BME280;29769;42.178;24.742;2023-01-16T06:21:27;99558.16;;;5.40;100.00
44103;BME280;29769;42.178;24.742;2023-01-16T06:24:12;99561.63;;;5.35;100.00
44103;BME280;29769;42.178;24.742;2023-01-16T06:26:57;99538.16;;;5.35;100.00
44103;BME280;29769;42.178;24.742;2023-01-16T06:29:41;99561.69;;;5.49;100.00
44103;BME280;29769;42.178;24.742;2023-01-16T06:32:27;99564.31;;;5.58;100.00
44103;BME280;29769;42.178;24.742;2023-01-16T06:35:12;99561.72;;;5.63;100.00
44103;BME280;29769;42.178;24.742;2023-01-16T06:37:57;99563.47;;;5.67;100.00
44103;BME280;29769;42.178;24.742;2023-01-16T06:40:43;99566.06;;;5.77;100.00
44103;BME280;29769;42.178;24.742;2023-01-16T06:43:29;99567.81;;;5.74;100.00
44103;BME280;29769;42.178;24.742;2023-01-16T06:46:14;99557.31;;;5.48;100.00
44103;BME280;29769;42.178;24.742;2023-01-16T06:48:59;99554.72;;;5.53;100.00
44103;BME280;29769;42.178;24.742;2023-01-16T06:51:44;99535.56;;;5.51;100.00
44103;BME280;29769;42.178;24.742;2023-01-16T06:54:29;99540.81;;;5.60;100.00
44103;BME280;29769;42.178;24.742;2023-01-16T06:57:14;99529.53;;;5.68;100.00
44103;BME280;29769;42.178;24.742;2023-01-16T06:59:59;99547.00;;;5.89;100.00
44103;BME280;29769;42.178;24.742;2023-01-16T07:02:52;99546.13;;;5.92;100.00
44103;BME280;29769;42.178;24.742;2023-01-16T07:05:38;99546.13;;;5.93;100.00
44103;BME280;29769;42.178;24.742;2023-01-16T07:08:23;99540.94;;;5.95;100.00
44103;BME280;29769;42.178;24.742;2023-01-16T07:11:08;99528.72;;;5.92;100.00
44103;BME280;29769;42.178;24.742;2023-01-16T07:13:53;99519.97;;;5.61;100.00
44103;BME280;29769;42.178;24.742;2023-01-16T07:16:58;99523.41;;;5.54;100.00
44103;BME280;29769;42.178;24.742;2023-01-16T07:20:01;99506.03;;;5.61;100.00
44103;BME280;29769;42.178;24.742;2023-01-16T07:23:16;99507.78;;;5.60;100.00
44103;BME280;29769;42.178;24.742;2023-01-16T07:26:04;99502.56;;;5.62;100.00
44103;BME280;29769;42.178;24.742;2023-01-16T07:28:50;99476.44;;;5.54;100.00
44103;BME280;29769;42.178;24.742;2023-01-16T07:31:36;99494.72;;;5.63;100.00
44103;BME280;29769;42.178;24.742;2023-01-16T07:34:21;99496.50;;;5.72;100.00
44103;BME280;29769;42.178;24.742;2023-01-16T07:37:06;99494.72;;;5.86;100.00
44103;BME280;29769;42.178;24.742;2023-01-16T07:39:54;99492.19;;;6.16;100.00
44103;BME280;29769;42.178;24.742;2023-01-16T07:42:39;99477.31;;;6.47;100.00
44103;BME280;29769;42.178;24.742;2023-01-16T07:45:24;99470.31;;;6.61;100.00
44103;BME280;29769;42.178;24.742;2023-01-16T07:48:09;99479.00;;;6.66;100.00
44103;BME280;29769;42.178;24.742;2023-01-16T07:50:56;99482.47;;;6.76;100.00
44103;BME280;29769;42.178;24.742;2023-01-16T07:53:41;99477.16;;;6.93;100.00
44103;BME280;29769;42.178;24.742;2023-01-16T07:56:26;99466.78;;;6.75;100.00
44103;BME280;29769;42.178;24.742;2023-01-16T07:59:10;99471.16;;;6.68;100.00
44103;BME280;29769;42.178;24.742;2023-01-16T08:01:55;99465.81;;;6.98;100.00
44103;BME280;29769;42.178;24.742;2023-01-16T08:04:40;99471.03;;;7.03;100.00
44103;BME280;29769;42.178;24.742;2023-01-16T08:07:25;99475.31;;;7.14;100.00
44103;BME280;29769;42.178;24.742;2023-01-16T08:10:10;99488.53;;;6.90;100.00
44103;BME280;29769;42.178;24.742;2023-01-16T08:12:55;99495.41;;;7.06;100.00
44103;BME280;29769;42.178;24.742;2023-01-16T08:15:40;99508.44;;;7.22;100.00
44103;BME280;29769;42.178;24.742;2023-01-16T08:18:26;99530.16;;;7.36;100.00
44103;BME280;29769;42.178;24.742;2023-01-16T08:21:11;99532.69;;;7.54;100.00
44103;BME280;29769;42.178;24.742;2023-01-16T08:23:56;99526.44;;;7.75;100.00
44103;BME280;29769;42.178;24.742;2023-01-16T08:26:41;99519.28;;;7.98;100.00
44103;BME280;29769;42.178;24.742;2023-01-16T08:29:26;99514.28;;;7.66;100.00
44103;BME280;29769;42.178;24.742;2023-01-16T08:32:11;99507.34;;;7.59;100.00
44103;BME280;29769;42.178;24.742;2023-01-16T08:34:56;99506.41;;;7.71;100.00
44103;BME280;29769;42.178;24.742;2023-01-16T08:37:48;99486.66;;;7.15;100.00
44103;BME280;29769;42.178;24.742;2023-01-16T08:40:33;99489.22;;;7.23;100.00
44103;BME280;29769;42.178;24.742;2023-01-16T08:43:17;99495.44;;;7.00;100.00
44103;BME280;29769;42.178;24.742;2023-01-16T08:46:22;99499.66;;;7.29;100.00
44103;BME280;29769;42.178;24.742;2023-01-16T08:49:26;99482.38;;;6.99;100.00
44103;BME280;29769;42.178;24.742;2023-01-16T08:52:30;99487.38;;;7.44;100.00
44103;BME280;29769;42.178;24.742;2023-01-16T08:55:15;99475.72;;;7.88;100.00
44103;BME280;29769;42.178;24.742;2023-01-16T08:57:59;99464.22;;;8.04;100.00
44103;BME280;29769;42.178;24.742;2023-01-16T09:00:44;99471.03;;;8.26;100.00
44103;BME280;29769;42.178;24.742;2023-01-16T09:03:29;99462.84;;;8.60;100.00
44103;BME280;29769;42.178;24.742;2023-01-16T09:06:14;99460.72;;;8.90;100.00
44103;BME280;29769;42.178;24.742;2023-01-16T09:08:59;99464.63;;;8.55;100.00
44103;BME280;29769;42.178;24.742;2023-01-16T09:11:44;99464.84;;;8.35;100.00
44103;BME280;29769;42.178;24.742;2023-01-16T09:14:47;99459.63;;;8.35;100.00
44103;BME280;29769;42.178;24.742;2023-01-16T09:17:33;99454.44;;;8.24;100.00
44103;BME280;29769;42.178;24.742;2023-01-16T09:20:17;99452.44;;;7.53;100.00
44103;BME280;29769;42.178;24.742;2023-01-16T09:23:03;99438.66;;;7.24;100.00
44103;BME280;29769;42.178;24.742;2023-01-16T09:25:48;99427.56;;;6.79;100.00
44103;BME280;29769;42.178;24.742;2023-01-16T09:28:33;99420.56;;;6.83;100.00
44103;BME280;29769;42.178;24.742;2023-01-16T09:31:18;99430.94;;;6.96;100.00
44103;BME280;29769;42.178;24.742;2023-01-16T09:34:05;99425.59;;;7.22;100.00
44103;BME280;29769;42.178;24.742;2023-01-16T09:36:50;99419.28;;;7.50;100.00
44103;BME280;29769;42.178;24.742;2023-01-16T09:39:35;99409.59;;;7.60;100.00
44103;BME280;29769;42.178;24.742;2023-01-16T09:42:32;99414.94;;;7.49;100.00
44103;BME280;29769;42.178;24.742;2023-01-16T09:45:42;99409.63;;;7.57;100.00
44103;BME280;29769;42.178;24.742;2023-01-16T09:48:31;99398.13;;;7.78;100.00
44103;BME280;29769;42.178;24.742;2023-01-16T09:51:23;99394.44;;;7.95;100.00
44103;BME280;29769;42.178;24.742;2023-01-16T09:54:12;99384.81;;;8.00;100.00
44103;BME280;29769;42.178;24.742;2023-01-16T09:57:19;99373.41;;;8.04;100.00
44103;BME280;29769;42.178;24.742;2023-01-16T10:00:24;99373.16;;;8.29;100.00
44103;BME280;29769;42.178;24.742;2023-01-16T10:03:10;99366.94;;;8.40;100.00
44103;BME280;29769;42.178;24.742;2023-01-16T10:08:58;99361.38;;;8.66;100.00
44103;BME280;29769;42.178;24.742;2023-01-16T10:12:03;99371.59;;;8.87;100.00
44103;BME280;29769;42.178;24.742;2023-01-16T10:15:21;99360.28;;;8.82;100.00
44103;BME280;29769;42.178;24.742;2023-01-16T10:27:49;99347.97;;;8.16;100.00
44103;BME280;29769;42.178;24.742;2023-01-16T10:30:43;99352.53;;;7.97;100.00
44103;BME280;29769;42.178;24.742;2023-01-16T10:34:29;99338.53;;;7.99;100.00
44103;BME280;29769;42.178;24.742;2023-01-16T10:36:55;99337.97;;;7.72;100.00
44103;BME280;29769;42.178;24.742;2023-01-16T10:39:44;99339.41;;;8.01;100.00
44103;BME280;29769;42.178;24.742;2023-01-16T10:42:32;99330.94;;;7.77;100.00
44103;BME280;29769;42.178;24.742;2023-01-16T10:45:36;99300.66;;;7.48;100.00
44103;BME280;29769;42.178;24.742;2023-01-16T10:48:40;99311.06;;;7.54;100.00
44103;BME280;29769;42.178;24.742;2023-01-16T10:51:44;99304.91;;;7.60;100.00
44103;BME280;29769;42.178;24.742;2023-01-16T10:54:29;99301.69;;;7.29;100.00
44103;BME280;29769;42.178;24.742;2023-01-16T10:57:16;99286.31;;;6.88;100.00
44103;BME280;29769;42.178;24.742;2023-01-16T11:00:12;99288.78;;;7.09;100.00
44103;BME280;29769;42.178;24.742;2023-01-16T11:03:04;99279.38;;;6.84;100.00
44103;BME280;29769;42.178;24.742;2023-01-16T11:06:07;99276.91;;;6.61;100.00
44103;BME280;29769;42.178;24.742;2023-01-16T11:11:58;99270.56;;;6.96;100.00
44103;BME280;29769;42.178;24.742;2023-01-16T11:15:07;99258.97;;;7.27;100.00
44103;BME280;29769;42.178;24.742;2023-01-16T11:18:30;99260.75;;;7.25;100.00
44103;BME280;29769;42.178;24.742;2023-01-16T11:21:30;99254.94;;;6.90;100.00
44103;BME280;29769;42.178;24.742;2023-01-16T11:24:19;99258.66;;;6.57;100.00
44103;BME280;29769;42.178;24.742;2023-01-16T11:27:07;99262.06;;;6.69;100.00
44103;BME280;29769;42.178;24.742;2023-01-16T11:29:57;99253.03;;;7.11;100.00
44103;BME280;29769;42.178;24.742;2023-01-16T11:32:42;99231.88;;;7.36;100.00
44103;BME280;29769;42.178;24.742;2023-01-16T11:35:34;99252.50;;;7.68;100.00
44103;BME280;29769;42.178;24.742;2023-01-16T11:38:21;99248.47;;;7.35;100.00
44103;BME280;29769;42.178;24.742;2023-01-16T11:41:07;99246.88;;;7.17;100.00
44103;BME280;29769;42.178;24.742;2023-01-16T11:47:26;99233.97;;;6.97;100.00
44103;BME280;29769;42.178;24.742;2023-01-16T11:50:41;99238.78;;;7.43;100.00
44103;BME280;29769;42.178;24.742;2023-01-16T11:53:30;99239.25;;;7.78;100.00
44103;BME280;29769;42.178;24.742;2023-01-16T11:59:47;99246.53;;;7.53;100.00
44103;BME280;29769;42.178;24.742;2023-01-16T12:02:51;99239.38;;;7.71;100.00
44103;BME280;29769;42.178;24.742;2023-01-16T12:06:05;99215.78;;;7.72;100.00
44103;BME280;29769;42.178;24.742;2023-01-16T12:12:18;99227.66;;;8.02;100.00
44103;BME280;29769;42.178;24.742;2023-01-16T12:15:35;99232.06;;;7.95;100.00
44103;BME280;29769;42.178;24.742;2023-01-16T12:18:34;99211.91;;;8.03;100.00
44103;BME280;29769;42.178;24.742;2023-01-16T12:21:27;99207.19;;;8.28;100.00
44103;BME280;29769;42.178;24.742;2023-01-16T12:24:35;99210.69;;;8.29;100.00
44103;BME280;29769;42.178;24.742;2023-01-16T12:27:46;99191.91;;;8.62;100.00
44103;BME280;29769;42.178;24.742;2023-01-16T12:34:06;99188.19;;;8.75;100.00
44103;BME280;29769;42.178;24.742;2023-01-16T12:37:12;99170.47;;;8.89;100.00
44103;BME280;29769;42.178;24.742;2023-01-16T12:46:22;99188.69;;;8.99;100.00
44103;BME280;29769;42.178;24.742;2023-01-16T12:49:25;99195.47;;;9.10;100.00
44103;BME280;29769;42.178;24.742;2023-01-16T12:52:27;99196.06;;;9.26;100.00
44103;BME280;29769;42.178;24.742;2023-01-16T12:58:37;99184.78;;;8.70;100.00
44103;BME280;29769;42.178;24.742;2023-01-16T13:01:27;99177.28;;;8.46;100.00
44103;BME280;29769;42.178;24.742;2023-01-16T13:04:26;99172.78;;;8.54;100.00
44103;BME280;29769;42.178;24.742;2023-01-16T13:07:15;99171.66;;;8.72;100.00
44103;BME280;29769;42.178;24.742;2023-01-16T13:10:04;99166.28;;;8.78;100.00
44103;BME280;29769;42.178;24.742;2023-01-16T13:13:20;99163.28;;;8.47;100.00
44103;BME280;29769;42.178;24.742;2023-01-16T13:18:58;99164.78;;;8.02;100.00
44103;BME280;29769;42.178;24.742;2023-01-16T13:22:10;99158.69;;;8.00;100.00
44103;BME280;29769;42.178;24.742;2023-01-16T13:25:11;99161.38;;;7.95;100.00
44103;BME280;29769;42.178;24.742;2023-01-16T13:28:12;99154.66;;;7.76;100.00
44103;BME280;29769;42.178;24.742;2023-01-16T13:31:07;99140.06;;;7.55;100.00
44103;BME280;29769;42.178;24.742;2023-01-16T13:34:02;99150.50;;;7.58;100.00
44103;BME280;29769;42.178;24.742;2023-01-16T13:42:59;99133.41;;;7.30;100.00
44103;BME280;29769;42.178;24.742;2023-01-16T13:46:07;99122.31;;;7.08;100.00
44103;BME280;29769;42.178;24.742;2023-01-16T13:48:57;99091.09;;;6.90;100.00
44103;BME280;29769;42.178;24.742;2023-01-16T13:51:44;99115.53;;;6.86;100.00
44103;BME280;29769;42.178;24.742;2023-01-16T13:54:43;99121.63;;;6.87;100.00
44103;BME280;29769;42.178;24.742;2023-01-16T13:57:30;99114.66;;;6.89;100.00
44103;BME280;29769;42.178;24.742;2023-01-16T14:00:18;99115.56;;;6.83;100.00
44103;BME280;29769;42.178;24.742;2023-01-16T14:03:23;99094.88;;;6.59;100.00
44103;BME280;29769;42.178;24.742;2023-01-16T14:12:20;99098.50;;;6.43;100.00
44103;BME280;29769;42.178;24.742;2023-01-16T14:15:24;99085.53;;;6.34;100.00
44103;BME280;29769;42.178;24.742;2023-01-16T14:18:38;99086.38;;;6.33;100.00
44103;BME280;29769;42.178;24.742;2023-01-16T14:21:26;99083.00;;;6.20;100.00
44103;BME280;29769;42.178;24.742;2023-01-16T14:24:17;99081.41;;;6.02;100.00
44103;BME280;29769;42.178;24.742;2023-01-16T14:27:03;99081.38;;;6.07;100.00
44103;BME280;29769;42.178;24.742;2023-01-16T14:29:51;99086.56;;;6.11;100.00
44103;BME280;29769;42.178;24.742;2023-01-16T14:32:45;99083.88;;;6.19;100.00
44103;BME280;29769;42.178;24.742;2023-01-16T14:35:41;99076.06;;;6.20;100.00
44103;BME280;29769;42.178;24.742;2023-01-16T14:38:29;99075.19;;;6.21;100.00
44103;BME280;29769;42.178;24.742;2023-01-16T14:41:17;99083.84;;;6.25;100.00
44103;BME280;29769;42.178;24.742;2023-01-16T14:44:27;99082.06;;;6.29;100.00
44103;BME280;29769;42.178;24.742;2023-01-16T14:47:32;99097.63;;;6.44;100.00
44103;BME280;29769;42.178;24.742;2023-01-16T14:50:44;99094.06;;;6.54;100.00
44103;BME280;29769;42.178;24.742;2023-01-16T14:54:00;99088.78;;;6.60;100.00
44103;BME280;29769;42.178;24.742;2023-01-16T14:57:12;99085.25;;;6.67;100.00
44103;BME280;29769;42.178;24.742;2023-01-16T14:59:58;99074.69;;;6.75;100.00
44103;BME280;29769;42.178;24.742;2023-01-16T15:02:56;99070.31;;;6.78;100.00
44103;BME280;29769;42.178;24.742;2023-01-16T15:05:46;99064.19;;;6.79;100.00
44103;BME280;29769;42.178;24.742;2023-01-16T15:08:39;99057.28;;;6.77;100.00
44103;BME280;29769;42.178;24.742;2023-01-16T15:11:29;99059.94;;;6.72;100.00
44103;BME280;29769;42.178;24.742;2023-01-16T15:14:26;99045.94;;;6.73;100.00
44103;BME280;29769;42.178;24.742;2023-01-16T15:17:18;99046.88;;;6.70;100.00
44103;BME280;29769;42.178;24.742;2023-01-16T15:20:28;99036.53;;;6.58;100.00
44103;BME280;29769;42.178;24.742;2023-01-16T15:23:34;99028.84;;;6.45;100.00
44103;BME280;29769;42.178;24.742;2023-01-16T15:29:20;99020.19;;;6.37;100.00
44103;BME280;29769;42.178;24.742;2023-01-16T15:32:13;99004.63;;;6.26;100.00
44103;BME280;29769;42.178;24.742;2023-01-16T15:35:15;99013.34;;;6.27;100.00
44103;BME280;29769;42.178;24.742;2023-01-16T15:38:03;99008.22;;;6.11;100.00
44103;BME280;29769;42.178;24.742;2023-01-16T15:40:49;99006.56;;;6.00;100.00
44103;BME280;29769;42.178;24.742;2023-01-16T15:43:36;99015.28;;;6.00;100.00
44103;BME280;29769;42.178;24.742;2023-01-16T15:49:46;99034.50;;;5.86;100.00
44103;BME280;29769;42.178;24.742;2023-01-16T15:52:36;99037.16;;;5.81;100.00
44103;BME280;29769;42.178;24.742;2023-01-16T15:55:29;99029.38;;;5.72;100.00
44103;BME280;29769;42.178;24.742;2023-01-16T15:58:17;99031.97;;;5.73;100.00
44103;BME280;29769;42.178;24.742;2023-01-16T16:01:05;99040.72;;;5.66;100.00
44103;BME280;29769;42.178;24.742;2023-01-16T16:03:51;99015.53;;;5.62;100.00
44103;BME280;29769;42.178;24.742;2023-01-16T16:06:36;99021.59;;;5.67;100.00
44103;BME280;29769;42.178;24.742;2023-01-16T16:09:25;99016.41;;;5.63;100.00
44103;BME280;29769;42.178;24.742;2023-01-16T16:12:12;99001.69;;;5.47;100.00
44103;BME280;29769;42.178;24.742;2023-01-16T16:15:18;99010.38;;;5.53;100.00
44103;BME280;29769;42.178;24.742;2023-01-16T16:18:23;99021.66;;;5.54;100.00
44103;BME280;29769;42.178;24.742;2023-01-16T16:21:09;99036.44;;;5.53;100.00
44103;BME280;29769;42.178;24.742;2023-01-16T16:24:05;99028.63;;;5.53;100.00
44103;BME280;29769;42.178;24.742;2023-01-16T16:26:55;99030.38;;;5.51;100.00
44103;BME280;29769;42.178;24.742;2023-01-16T16:29:40;99019.00;;;5.63;100.00
44103;BME280;29769;42.178;24.742;2023-01-16T16:32:25;99023.28;;;5.70;100.00
44103;BME280;29769;42.178;24.742;2023-01-16T16:35:34;99022.38;;;5.74;100.00
44103;BME280;29769;42.178;24.742;2023-01-16T16:38:31;99018.03;;;5.74;100.00